sensor_id;sensor_type;location;lat;lon;timestamp;P1;P2;P0
43180;PMS7003;28798;54.950;26.362;2022-10-16T00:03:39;12.9;12.6;10
43180;PMS7003;28798;54.950;26.362;2022-10-16T00:13:50;14.9;14.7;11.1
43180;PMS7003;28798;54.950;26.362;2022-10-16T00:18:39;13.7;13.4;9.1
43180;PMS7003;28798;54.950;26.362;2022-10-16T00:23:50;13.7;13.4;9.1
43180;PMS7003;28798;54.950;26.362;2022-10-16T00:28:39;13.9;13.7;9.6
43180;PMS7003;28798;54.950;26.362;2022-10-16T00:33:50;13.9;13.7;9.6
43180;PMS7003;28798;54.950;26.362;2022-10-16T00:53:48;11.6;11.3;7.6
43180;PMS7003;28798;54.950;26.362;2022-10-16T00:59:14;11.6;11.3;7.6
43180;PMS7003;28798;54.950;26.362;2022-10-16T01:03:57;11.6;11.3;7.6
43180;PMS7003;28798;54.950;26.362;2022-10-16T01:18:41;9.8;9.8;7.7
43180;PMS7003;28798;54.950;26.362;2022-10-16T01:23:51;17.4;16.9;12
43180;PMS7003;28798;54.950;26.362;2022-10-16T01:28:46;17.4;16.9;12
43180;PMS7003;28798;54.950;26.362;2022-10-16T01:34:16;12;11.8;8.8
43180;PMS7003;28798;54.950;26.362;2022-10-16T01:38:40;12;11.8;8.8
43180;PMS7003;28798;54.950;26.362;2022-10-16T01:44:01;15.9;15.3;9.4
43180;PMS7003;28798;54.950;26.362;2022-10-16T01:48:39;11.9;11;8.1
43180;PMS7003;28798;54.950;26.362;2022-10-16T01:53:46;11.9;11;8.1
43180;PMS7003;28798;54.950;26.362;2022-10-16T01:58:40;11.9;11;8.1
43180;PMS7003;28798;54.950;26.362;2022-10-16T02:04:07;11.9;11;8.1
43180;PMS7003;28798;54.950;26.362;2022-10-16T02:18:39;13.9;13.7;10.7
43180;PMS7003;28798;54.950;26.362;2022-10-16T02:23:41;14.1;13.2;10.5
43180;PMS7003;28798;54.950;26.362;2022-10-16T02:28:48;16.4;16.1;11.9
43180;PMS7003;28798;54.950;26.362;2022-10-16T02:33:40;16.4;16.1;11.9
43180;PMS7003;28798;54.950;26.362;2022-10-16T02:48:49;11.6;11.3;8.6
43180;PMS7003;28798;54.950;26.362;2022-10-16T02:53:39;11.7;11.6;8
43180;PMS7003;28798;54.950;26.362;2022-10-16T02:58:39;11.7;11.6;8
43180;PMS7003;28798;54.950;26.362;2022-10-16T03:03:49;11.7;11.6;8
43180;PMS7003;28798;54.950;26.362;2022-10-16T03:08:47;11.7;11.6;8
43180;PMS7003;28798;54.950;26.362;2022-10-16T03:13:47;10;10;7.5
43180;PMS7003;28798;54.950;26.362;2022-10-16T03:18:55;16.1;15.7;11
43180;PMS7003;28798;54.950;26.362;2022-10-16T03:23:39;16.1;15.7;11
43180;PMS7003;28798;54.950;26.362;2022-10-16T03:28:39;16.1;15.7;11
43180;PMS7003;28798;54.950;26.362;2022-10-16T03:33:49;16.1;15.7;11
43180;PMS7003;28798;54.950;26.362;2022-10-16T03:38:39;17.3;16.8;11.8
43180;PMS7003;28798;54.950;26.362;2022-10-16T03:43:39;17.3;16.8;11.8
43180;PMS7003;28798;54.950;26.362;2022-10-16T03:48:49;16.1;15.8;11.4
43180;PMS7003;28798;54.950;26.362;2022-10-16T03:53:57;16.1;15.8;11.4
43180;PMS7003;28798;54.950;26.362;2022-10-16T03:58:57;13.9;13.4;11.1
43180;PMS7003;28798;54.950;26.362;2022-10-16T04:03:39;13.9;13.4;11.1
43180;PMS7003;28798;54.950;26.362;2022-10-16T04:18:47;13.9;13.2;9.6
43180;PMS7003;28798;54.950;26.362;2022-10-16T04:23:49;13.1;12.3;9
43180;PMS7003;28798;54.950;26.362;2022-10-16T04:28:49;13.1;12.3;9
43180;PMS7003;28798;54.950;26.362;2022-10-16T04:33:49;14.3;13.7;10.3
43180;PMS7003;28798;54.950;26.362;2022-10-16T04:38:59;16.3;15.4;10.4
43180;PMS7003;28798;54.950;26.362;2022-10-16T04:43:39;16.3;15.4;10.4
43180;PMS7003;28798;54.950;26.362;2022-10-16T04:48:47;16.3;15.4;10.4
43180;PMS7003;28798;54.950;26.362;2022-10-16T04:53:39;16.3;15.4;10.4
43180;PMS7003;28798;54.950;26.362;2022-10-16T04:59:01;16.3;15.4;10.4
43180;PMS7003;28798;54.950;26.362;2022-10-16T05:03:57;16.3;15.9;11.5
43180;PMS7003;28798;54.950;26.362;2022-10-16T05:08:47;16.3;15.9;11.5
43180;PMS7003;28798;54.950;26.362;2022-10-16T05:13:49;16.5;15.8;11.7
43180;PMS7003;28798;54.950;26.362;2022-10-16T05:18:50;16.5;15.8;11.7
43180;PMS7003;28798;54.950;26.362;2022-10-16T05:23:49;16.5;15.8;11.7
43180;PMS7003;28798;54.950;26.362;2022-10-16T05:28:39;16.5;15.8;11.7
43180;PMS7003;28798;54.950;26.362;2022-10-16T05:33:49;16.6;15.8;10.3
43180;PMS7003;28798;54.950;26.362;2022-10-16T05:38:50;16.6;15.8;10.3
43180;PMS7003;28798;54.950;26.362;2022-10-16T05:43:48;12.2;11.5;8.1
43180;PMS7003;28798;54.950;26.362;2022-10-16T05:48:57;14.7;13.3;9.6
43180;PMS7003;28798;54.950;26.362;2022-10-16T05:53:40;14.7;13.3;9.6
43180;PMS7003;28798;54.950;26.362;2022-10-16T05:58:39;14.7;13.3;9.6
43180;PMS7003;28798;54.950;26.362;2022-10-16T06:03:50;13.6;13.1;10.3
43180;PMS7003;28798;54.950;26.362;2022-10-16T06:14:00;12.1;11.9;10
43180;PMS7003;28798;54.950;26.362;2022-10-16T06:19:02;11.5;11.3;8.7
43180;PMS7003;28798;54.950;26.362;2022-10-16T06:23:39;11.5;11.3;8.7
43180;PMS7003;28798;54.950;26.362;2022-10-16T06:28:58;13.6;13.5;9.9
43180;PMS7003;28798;54.950;26.362;2022-10-16T06:33:49;13.6;13.5;9.9
43180;PMS7003;28798;54.950;26.362;2022-10-16T06:38:57;13.6;13.5;9.9
43180;PMS7003;28798;54.950;26.362;2022-10-16T06:43:39;14.4;14.1;8.3
43180;PMS7003;28798;54.950;26.362;2022-10-16T06:48:47;14.4;14.1;8.3
43180;PMS7003;28798;54.950;26.362;2022-10-16T06:53:40;14.4;14.1;8.3
43180;PMS7003;28798;54.950;26.362;2022-10-16T06:58:58;15.3;14.7;11.9
43180;PMS7003;28798;54.950;26.362;2022-10-16T07:03:49;15.3;14.7;11.9
43180;PMS7003;28798;54.950;26.362;2022-10-16T07:08:50;12.4;11.7;10
43180;PMS7003;28798;54.950;26.362;2022-10-16T07:13:40;12.4;11.7;10
43180;PMS7003;28798;54.950;26.362;2022-10-16T07:18:49;16.2;15.5;10.7
43180;PMS7003;28798;54.950;26.362;2022-10-16T07:23:40;16.8;16.8;12
43180;PMS7003;28798;54.950;26.362;2022-10-16T07:28:39;16.8;16.8;12
43180;PMS7003;28798;54.950;26.362;2022-10-16T07:33:48;18.1;17.3;10.8
43180;PMS7003;28798;54.950;26.362;2022-10-16T07:38:39;17.2;14.8;11.6
43180;PMS7003;28798;54.950;26.362;2022-10-16T07:43:39;17.9;17.6;12.9
43180;PMS7003;28798;54.950;26.362;2022-10-16T07:48:40;16.2;15.9;10.9
43180;PMS7003;28798;54.950;26.362;2022-10-16T07:53:39;21.6;17.7;12.3
43180;PMS7003;28798;54.950;26.362;2022-10-16T07:58:39;15;14.9;10.4
43180;PMS7003;28798;54.950;26.362;2022-10-16T08:03:41;15;14.9;10.4
43180;PMS7003;28798;54.950;26.362;2022-10-16T08:13:39;15.5;15.1;10.6
43180;PMS7003;28798;54.950;26.362;2022-10-16T08:18:47;13.6;13.3;9.8
43180;PMS7003;28798;54.950;26.362;2022-10-16T08:23:40;17.5;16.9;12.5
43180;PMS7003;28798;54.950;26.362;2022-10-16T08:29:01;17.4;16.9;13.2
43180;PMS7003;28798;54.950;26.362;2022-10-16T08:33:47;18.9;18.2;12.2
43180;PMS7003;28798;54.950;26.362;2022-10-16T08:38:59;16.5;15.9;11.4
43180;PMS7003;28798;54.950;26.362;2022-10-16T08:43:43;17.2;16.4;10.4
43180;PMS7003;28798;54.950;26.362;2022-10-16T08:49:01;15.2;14.9;10.4
43180;PMS7003;28798;54.950;26.362;2022-10-16T08:53:43;14.6;14.3;9.4
43180;PMS7003;28798;54.950;26.362;2022-10-16T08:58:50;18.1;18;12.6
43180;PMS7003;28798;54.950;26.362;2022-10-16T09:03:54;19.6;19.2;12.8
43180;PMS7003;28798;54.950;26.362;2022-10-16T09:09:02;19.2;18.8;13.4
43180;PMS7003;28798;54.950;26.362;2022-10-16T09:13:50;14.3;14.1;11.5
43180;PMS7003;28798;54.950;26.362;2022-10-16T09:18:51;14.8;13.6;9.4
43180;PMS7003;28798;54.950;26.362;2022-10-16T09:23:50;18.7;18.1;13.1
43180;PMS7003;28798;54.950;26.362;2022-10-16T09:28:55;17.5;16.3;11.1
43180;PMS7003;28798;54.950;26.362;2022-10-16T09:33:39;19.7;17.7;12.7
43180;PMS7003;28798;54.950;26.362;2022-10-16T09:38:39;19.1;18.6;12.4
43180;PMS7003;28798;54.950;26.362;2022-10-16T09:43:40;18.2;17.8;13.9
43180;PMS7003;28798;54.950;26.362;2022-10-16T09:48:48;16;16;11.6
43180;PMS7003;28798;54.950;26.362;2022-10-16T09:53:59;15.3;14.4;11.9
43180;PMS7003;28798;54.950;26.362;2022-10-16T09:58:58;14.6;13.5;10.6
43180;PMS7003;28798;54.950;26.362;2022-10-16T10:03:50;16.6;15.9;10.8
43180;PMS7003;28798;54.950;26.362;2022-10-16T10:08:54;18.2;17.6;12.1
43180;PMS7003;28798;54.950;26.362;2022-10-16T10:13:39;20.4;19.8;13.9
43180;PMS7003;28798;54.950;26.362;2022-10-16T10:18:57;16;16;13.9
43180;PMS7003;28798;54.950;26.362;2022-10-16T10:24:12;19.5;19.1;13.8
43180;PMS7003;28798;54.950;26.362;2022-10-16T10:28:44;21.8;19.9;14.1
43180;PMS7003;28798;54.950;26.362;2022-10-16T10:33:41;18.6;18;13.6
43180;PMS7003;28798;54.950;26.362;2022-10-16T10:38:50;14.6;14.6;11.9
43180;PMS7003;28798;54.950;26.362;2022-10-16T10:43:42;16.4;16.4;13.2
43180;PMS7003;28798;54.950;26.362;2022-10-16T10:48:44;22;20.6;14.3
43180;PMS7003;28798;54.950;26.362;2022-10-16T10:53:51;17.8;16.4;10.9
43180;PMS7003;28798;54.950;26.362;2022-10-16T10:58:44;19.7;18.3;13
43180;PMS7003;28798;54.950;26.362;2022-10-16T11:04:04;18.5;17.2;13.4
43180;PMS7003;28798;54.950;26.362;2022-10-16T11:08:50;20.6;19.3;13.6
43180;PMS7003;28798;54.950;26.362;2022-10-16T11:13:40;19.6;18.2;13.8
43180;PMS7003;28798;54.950;26.362;2022-10-16T11:19:13;20.4;19.2;14.1
43180;PMS7003;28798;54.950;26.362;2022-10-16T11:23:40;18.8;17.6;12
43180;PMS7003;28798;54.950;26.362;2022-10-16T11:28:41;20.4;18.6;13.3
43180;PMS7003;28798;54.950;26.362;2022-10-16T11:33:49;15.1;14.8;11.6
43180;PMS7003;28798;54.950;26.362;2022-10-16T11:39:16;15.3;14.3;10.3
43180;PMS7003;28798;54.950;26.362;2022-10-16T11:43:41;19.9;18.3;12.7
43180;PMS7003;28798;54.950;26.362;2022-10-16T11:48:41;18.5;16.6;11.4
43180;PMS7003;28798;54.950;26.362;2022-10-16T11:53:42;18.2;18.2;10.7
43180;PMS7003;28798;54.950;26.362;2022-10-16T11:58:41;18.8;17.3;12.4
43180;PMS7003;28798;54.950;26.362;2022-10-16T12:03:48;17.9;17.4;11.8
43180;PMS7003;28798;54.950;26.362;2022-10-16T12:08:40;20;19.1;12.3
43180;PMS7003;28798;54.950;26.362;2022-10-16T12:14:04;18.9;18.5;13.4
43180;PMS7003;28798;54.950;26.362;2022-10-16T12:19:02;15.7;15.5;11.5
43180;PMS7003;28798;54.950;26.362;2022-10-16T12:24:22;20.8;20.3;14.3
43180;PMS7003;28798;54.950;26.362;2022-10-16T12:29:13;18.2;17.2;12.9
43180;PMS7003;28798;54.950;26.362;2022-10-16T12:33:40;19.5;18.9;13.9
43180;PMS7003;28798;54.950;26.362;2022-10-16T12:38:50;19.3;18.5;13.4
43180;PMS7003;28798;54.950;26.362;2022-10-16T12:43:40;20.4;19.1;13.1
43180;PMS7003;28798;54.950;26.362;2022-10-16T12:48:40;20.4;19.1;13.1
43180;PMS7003;28798;54.950;26.362;2022-10-16T12:54:00;18.4;18.2;13.5
43180;PMS7003;28798;54.950;26.362;2022-10-16T12:58:44;19.5;18.2;12.4
43180;PMS7003;28798;54.950;26.362;2022-10-16T13:03:43;19.5;18.2;12.4
43180;PMS7003;28798;54.950;26.362;2022-10-16T13:08:44;17.6;17.1;12.8
43180;PMS7003;28798;54.950;26.362;2022-10-16T13:13:44;18.2;16.5;12
43180;PMS7003;28798;54.950;26.362;2022-10-16T13:18:43;20.2;19.1;13.8
43180;PMS7003;28798;54.950;26.362;2022-10-16T13:23:59;17.6;17.5;12.2
43180;PMS7003;28798;54.950;26.362;2022-10-16T13:28:50;19.8;18.9;13.9
43180;PMS7003;28798;54.950;26.362;2022-10-16T13:33:40;17.8;17.2;13.7
43180;PMS7003;28798;54.950;26.362;2022-10-16T13:38:59;17.4;17.1;11.6
43180;PMS7003;28798;54.950;26.362;2022-10-16T13:44:02;16.8;16.8;12.2
43180;PMS7003;28798;54.950;26.362;2022-10-16T13:48:59;19.5;18.4;13.4
43180;PMS7003;28798;54.950;26.362;2022-10-16T13:53:52;17.2;16.5;12.1
43180;PMS7003;28798;54.950;26.362;2022-10-16T13:58:59;18.6;16.4;11.9
43180;PMS7003;28798;54.950;26.362;2022-10-16T14:03:40;15.4;15.1;10.6
43180;PMS7003;28798;54.950;26.362;2022-10-16T14:09:14;17.4;16.9;11.6
43180;PMS7003;28798;54.950;26.362;2022-10-16T14:13:42;16.7;16.2;12.7
43180;PMS7003;28798;54.950;26.362;2022-10-16T14:18:40;17.6;15.7;12.3
43180;PMS7003;28798;54.950;26.362;2022-10-16T14:23:40;17.2;17.2;11.9
43180;PMS7003;28798;54.950;26.362;2022-10-16T14:28:40;19;18.4;13.8
43180;PMS7003;28798;54.950;26.362;2022-10-16T14:33:40;17;16.4;12
43180;PMS7003;28798;54.950;26.362;2022-10-16T14:38:53;21;20;14.5
43180;PMS7003;28798;54.950;26.362;2022-10-16T14:44:01;18.8;18.4;13.1
43180;PMS7003;28798;54.950;26.362;2022-10-16T14:48:40;17.6;17.5;13.1
43180;PMS7003;28798;54.950;26.362;2022-10-16T14:53:58;16.8;16.8;12.9
43180;PMS7003;28798;54.950;26.362;2022-10-16T14:58:40;14.8;14.8;11.2
43180;PMS7003;28798;54.950;26.362;2022-10-16T15:03:48;15.1;14.2;11.1
43180;PMS7003;28798;54.950;26.362;2022-10-16T15:08:40;15.1;14.2;11.1
43180;PMS7003;28798;54.950;26.362;2022-10-16T15:13:40;16.5;16.5;11.8
43180;PMS7003;28798;54.950;26.362;2022-10-16T15:18:40;13;13;10.8
43180;PMS7003;28798;54.950;26.362;2022-10-16T15:23:50;16.7;16.3;11.8
43180;PMS7003;28798;54.950;26.362;2022-10-16T15:28:58;15.6;14.8;11.3
43180;PMS7003;28798;54.950;26.362;2022-10-16T15:33:50;15.7;15.2;10.9
43180;PMS7003;28798;54.950;26.362;2022-10-16T15:38:40;16.9;16.6;12.2
43180;PMS7003;28798;54.950;26.362;2022-10-16T15:43:40;12.9;12.9;9.3
43180;PMS7003;28798;54.950;26.362;2022-10-16T15:48:48;15.9;14.9;11.2
43180;PMS7003;28798;54.950;26.362;2022-10-16T15:53:48;18.9;17.1;12.6
43180;PMS7003;28798;54.950;26.362;2022-10-16T15:58:40;15.2;14.4;11.1
43180;PMS7003;28798;54.950;26.362;2022-10-16T16:03:40;15.8;15.1;11.8
43180;PMS7003;28798;54.950;26.362;2022-10-16T16:09:02;13.8;12.7;7.7
43180;PMS7003;28798;54.950;26.362;2022-10-16T16:13:40;14.3;12.7;9.6
43180;PMS7003;28798;54.950;26.362;2022-10-16T16:18:52;17.4;17.4;12.3
43180;PMS7003;28798;54.950;26.362;2022-10-16T16:23:58;18.2;16.3;12.2
43180;PMS7003;28798;54.950;26.362;2022-10-16T16:28:40;18.9;18;12.6
43180;PMS7003;28798;54.950;26.362;2022-10-16T16:33:48;18.1;16.1;12.3
43180;PMS7003;28798;54.950;26.362;2022-10-16T16:38:40;18.7;17.3;12.4
43180;PMS7003;28798;54.950;26.362;2022-10-16T16:43:40;18.5;17.6;13.5
43180;PMS7003;28798;54.950;26.362;2022-10-16T16:49:02;17.7;17.7;13.5
43180;PMS7003;28798;54.950;26.362;2022-10-16T16:53:40;17.7;17.7;13.5
43180;PMS7003;28798;54.950;26.362;2022-10-16T16:58:40;17.8;16.6;12.6
43180;PMS7003;28798;54.950;26.362;2022-10-16T17:03:41;17.8;16.6;12.6
43180;PMS7003;28798;54.950;26.362;2022-10-16T17:14:00;17.8;17;12.8
43180;PMS7003;28798;54.950;26.362;2022-10-16T17:18:40;17.6;17.2;12.4
43180;PMS7003;28798;54.950;26.362;2022-10-16T17:23:40;17.6;17.2;12.4
43180;PMS7003;28798;54.950;26.362;2022-10-16T17:28:50;17.6;17.2;12.4
43180;PMS7003;28798;54.950;26.362;2022-10-16T17:33:58;20.9;19.3;14.8
43180;PMS7003;28798;54.950;26.362;2022-10-16T17:38:40;14.4;14.4;11.1
43180;PMS7003;28798;54.950;26.362;2022-10-16T17:43:58;14.4;14.4;11.1
43180;PMS7003;28798;54.950;26.362;2022-10-16T17:48:50;14.4;14.4;11.1
43180;PMS7003;28798;54.950;26.362;2022-10-16T17:53:40;15.3;15.2;10.6
43180;PMS7003;28798;54.950;26.362;2022-10-16T17:58:50;15.3;15.2;10.6
43180;PMS7003;28798;54.950;26.362;2022-10-16T18:03:48;15.3;15.2;10.6
43180;PMS7003;28798;54.950;26.362;2022-10-16T18:18:48;8.7;7.4;4.3
43180;PMS7003;28798;54.950;26.362;2022-10-16T18:23:40;17.1;16.7;11.9
43180;PMS7003;28798;54.950;26.362;2022-10-16T18:28:40;20.5;20.4;13.4
43180;PMS7003;28798;54.950;26.362;2022-10-16T18:33:40;19.4;16.8;12
43180;PMS7003;28798;54.950;26.362;2022-10-16T18:43:40;16.1;15.9;12.9
43180;PMS7003;28798;54.950;26.362;2022-10-16T18:48:48;18.3;16.8;11.9
43180;PMS7003;28798;54.950;26.362;2022-10-16T18:53:59;15.8;15.3;12.5
43180;PMS7003;28798;54.950;26.362;2022-10-16T18:58:48;15.8;15.3;12.5
43180;PMS7003;28798;54.950;26.362;2022-10-16T19:03:48;15.8;15.3;12.5
43180;PMS7003;28798;54.950;26.362;2022-10-16T19:13:40;14.9;14.9;11.2
43180;PMS7003;28798;54.950;26.362;2022-10-16T19:18:40;18.7;17.5;12.3
43180;PMS7003;28798;54.950;26.362;2022-10-16T19:23:40;17.1;16.7;13.5
43180;PMS7003;28798;54.950;26.362;2022-10-16T19:28:48;17.4;16.6;11.6
43180;PMS7003;28798;54.950;26.362;2022-10-16T19:33:50;17.4;16.6;11.6
43180;PMS7003;28798;54.950;26.362;2022-10-16T19:48:40;17.4;16.6;11.6
43180;PMS7003;28798;54.950;26.362;2022-10-16T19:53:51;19.8;18.6;12.6
43180;PMS7003;28798;54.950;26.362;2022-10-16T19:59:14;24.5;23.2;16.5
43180;PMS7003;28798;54.950;26.362;2022-10-16T20:04:00;24.5;23.2;16.5
43180;PMS7003;28798;54.950;26.362;2022-10-16T20:08:40;17.8;17.8;12.3
43180;PMS7003;28798;54.950;26.362;2022-10-16T20:13:50;17.3;16.9;12.8
43180;PMS7003;28798;54.950;26.362;2022-10-16T20:18:40;17.3;16.9;12.8
43180;PMS7003;28798;54.950;26.362;2022-10-16T20:23:56;19.5;18.7;13
43180;PMS7003;28798;54.950;26.362;2022-10-16T20:28:40;19.5;18.7;13
43180;PMS7003;28798;54.950;26.362;2022-10-16T20:33:40;14.8;13.8;10.9
43180;PMS7003;28798;54.950;26.362;2022-10-16T20:39:00;19.7;18.9;12.8
43180;PMS7003;28798;54.950;26.362;2022-10-16T20:43:40;21.1;19.2;13.6
43180;PMS7003;28798;54.950;26.362;2022-10-16T20:48:50;21.1;19.2;13.6
43180;PMS7003;28798;54.950;26.362;2022-10-16T20:53:40;19;18.2;12.2
43180;PMS7003;28798;54.950;26.362;2022-10-16T20:58:40;19.2;18.5;13.7
43180;PMS7003;28798;54.950;26.362;2022-10-16T21:04:00;19.2;18.5;13.7
43180;PMS7003;28798;54.950;26.362;2022-10-16T21:08:50;19.2;18.5;13.7
43180;PMS7003;28798;54.950;26.362;2022-10-16T21:13:51;19.3;17.9;12.8
43180;PMS7003;28798;54.950;26.362;2022-10-16T21:18:53;19.3;17.9;12.8
43180;PMS7003;28798;54.950;26.362;2022-10-16T21:23:40;14;13.3;10.9
43180;PMS7003;28798;54.950;26.362;2022-10-16T21:28:40;14;13.3;10.9
43180;PMS7003;28798;54.950;26.362;2022-10-16T21:33:40;21.4;20.4;11.6
43180;PMS7003;28798;54.950;26.362;2022-10-16T21:43:40;21.4;20.4;11.6
43180;PMS7003;28798;54.950;26.362;2022-10-16T21:48:51;15;14.3;10.5
43180;PMS7003;28798;54.950;26.362;2022-10-16T21:53:40;16.5;16.3;10.3
43180;PMS7003;28798;54.950;26.362;2022-10-16T21:59:04;16.5;16.3;10.3
43180;PMS7003;28798;54.950;26.362;2022-10-16T22:03:40;18.9;18;12.5
43180;PMS7003;28798;54.950;26.362;2022-10-16T22:18:40;18.9;18;12.5
43180;PMS7003;28798;54.950;26.362;2022-10-16T22:24:02;13.5;13.2;10.4
43180;PMS7003;28798;54.950;26.362;2022-10-16T22:28:40;13.5;13.2;10.4
43180;PMS7003;28798;54.950;26.362;2022-10-16T22:33:40;15.9;15.9;10.4
43180;PMS7003;28798;54.950;26.362;2022-10-16T22:43:41;15.9;15.9;10.4
43180;PMS7003;28798;54.950;26.362;2022-10-16T22:48:40;11.7;11.3;8.5
43180;PMS7003;28798;54.950;26.362;2022-10-16T22:53:50;11.7;11.3;8.5
43180;PMS7003;28798;54.950;26.362;2022-10-16T22:58:48;11.7;11.3;8.5
43180;PMS7003;28798;54.950;26.362;2022-10-16T23:08:40;17.6;17.1;12.1
43180;PMS7003;28798;54.950;26.362;2022-10-16T23:13:40;17.6;17.1;12.1
43180;PMS7003;28798;54.950;26.362;2022-10-16T23:18:50;17.9;17.6;11.9
43180;PMS7003;28798;54.950;26.362;2022-10-16T23:23:56;17.9;17.6;11.9
43180;PMS7003;28798;54.950;26.362;2022-10-16T23:28:58;17.9;17.6;11.9
43180;PMS7003;28798;54.950;26.362;2022-10-16T23:33:48;14.7;14.3;9.4
43180;PMS7003;28798;54.950;26.362;2022-10-16T23:38:40;18.7;18.4;11.9
43180;PMS7003;28798;54.950;26.362;2022-10-16T23:43:40;18.7;18.4;11.9
43180;PMS7003;28798;54.950;26.362;2022-10-16T23:48:48;18.7;18.4;11.9
43180;PMS7003;28798;54.950;26.362;2022-10-16T23:53:40;18.7;18.4;11.9
